sensor_id;sensor_type;location;lat;lon;timestamp;pressure;altitude;pressure_sealevel;temperature;humidity
4972;BME280;2501;51.214;6.768;2023-03-16T00:01:02;101657.66;;;3.02;74.04
4972;BME280;2501;51.214;6.768;2023-03-16T00:03:30;101668.28;;;3.07;73.85
4972;BME280;2501;51.214;6.768;2023-03-16T00:05:59;101669.16;;;3.07;74.20
4972;BME280;2501;51.214;6.768;2023-03-16T00:08:27;101662.69;;;2.99;73.98
4972;BME280;2501;51.214;6.768;2023-03-16T00:10:56;101657.59;;;3.01;74.06
4972;BME280;2501;51.214;6.768;2023-03-16T00:13:24;101650.72;;;3.01;74.37
4972;BME280;2501;51.214;6.768;2023-03-16T00:15:54;101643.00;;;3.03;74.19
4972;BME280;2501;51.214;6.768;2023-03-16T00:18:27;101640.25;;;3.00;74.25
4972;BME280;2501;51.214;6.768;2023-03-16T00:21:04;101635.97;;;3.00;74.48
4972;BME280;2501;51.214;6.768;2023-03-16T00:23:33;101633.13;;;2.96;74.44
4972;BME280;2501;51.214;6.768;2023-03-16T00:26:04;101637.50;;;2.97;74.78
4972;BME280;2501;51.214;6.768;2023-03-16T00:28:34;101629.44;;;2.91;74.93
4972;BME280;2501;51.214;6.768;2023-03-16T00:31:03;101635.28;;;2.87;75.04
4972;BME280;2501;51.214;6.768;2023-03-16T00:33:35;101634.56;;;2.89;75.23
4972;BME280;2501;51.214;6.768;2023-03-16T00:36:04;101643.78;;;2.84;75.22
4972;BME280;2501;51.214;6.768;2023-03-16T00:38:36;101637.94;;;2.88;75.22
4972;BME280;2501;51.214;6.768;2023-03-16T00:41:10;101640.63;;;2.90;75.24
4972;BME280;2501;51.214;6.768;2023-03-16T00:43:40;101638.19;;;2.93;75.32
4972;BME280;2501;51.214;6.768;2023-03-16T00:46:11;101638.19;;;2.93;75.14
4972;BME280;2501;51.214;6.768;2023-03-16T00:48:45;101639.91;;;2.92;75.16
4972;BME280;2501;51.214;6.768;2023-03-16T00:51:15;101629.59;;;2.94;75.05
4972;BME280;2501;51.214;6.768;2023-03-16T00:53:45;101619.97;;;2.91;75.39
4972;BME280;2501;51.214;6.768;2023-03-16T00:56:14;101632.94;;;2.91;75.27
4972;BME280;2501;51.214;6.768;2023-03-16T00:58:43;101634.72;;;2.92;75.34
4972;BME280;2501;51.214;6.768;2023-03-16T01:01:13;101629.66;;;2.95;75.37
4972;BME280;2501;51.214;6.768;2023-03-16T01:03:45;101627.03;;;2.94;75.19
4972;BME280;2501;51.214;6.768;2023-03-16T01:06:15;101621.84;;;2.94;75.14
4972;BME280;2501;51.214;6.768;2023-03-16T01:08:45;101613.97;;;2.92;75.12
4972;BME280;2501;51.214;6.768;2023-03-16T01:11:15;101612.19;;;2.91;74.96
4972;BME280;2501;51.214;6.768;2023-03-16T01:13:45;101603.69;;;2.94;75.23
4972;BME280;2501;51.214;6.768;2023-03-16T01:16:15;101602.94;;;2.96;75.14
4972;BME280;2501;51.214;6.768;2023-03-16T01:18:46;101603.09;;;2.99;75.12
4972;BME280;2501;51.214;6.768;2023-03-16T01:21:14;101601.38;;;3.00;75.03
4972;BME280;2501;51.214;6.768;2023-03-16T01:23:43;101604.22;;;3.04;74.82
4972;BME280;2501;51.214;6.768;2023-03-16T01:26:12;101596.13;;;2.98;75.04
4972;BME280;2501;51.214;6.768;2023-03-16T01:28:42;101589.16;;;2.97;75.12
4972;BME280;2501;51.214;6.768;2023-03-16T01:31:12;101585.56;;;2.94;74.90
4972;BME280;2501;51.214;6.768;2023-03-16T01:33:42;101589.09;;;2.96;74.84
4972;BME280;2501;51.214;6.768;2023-03-16T01:36:15;101582.19;;;2.96;75.17
4972;BME280;2501;51.214;6.768;2023-03-16T01:38:44;101572.00;;;2.99;75.10
4972;BME280;2501;51.214;6.768;2023-03-16T01:41:13;101576.13;;;2.96;75.01
4972;BME280;2501;51.214;6.768;2023-03-16T01:43:42;101570.81;;;2.93;74.85
4972;BME280;2501;51.214;6.768;2023-03-16T01:46:18;101568.22;;;2.93;74.81
4972;BME280;2501;51.214;6.768;2023-03-16T01:48:57;101561.91;;;2.88;74.94
4972;BME280;2501;51.214;6.768;2023-03-16T01:51:31;101561.41;;;2.95;74.98
4972;BME280;2501;51.214;6.768;2023-03-16T01:54:04;101556.81;;;2.89;75.11
4972;BME280;2501;51.214;6.768;2023-03-16T01:56:37;101560.00;;;2.84;75.16
4972;BME280;2501;51.214;6.768;2023-03-16T01:59:10;101559.16;;;2.85;75.21
4972;BME280;2501;51.214;6.768;2023-03-16T02:01:41;101554.00;;;2.85;75.26
4972;BME280;2501;51.214;6.768;2023-03-16T02:04:20;101553.63;;;2.77;75.12
4972;BME280;2501;51.214;6.768;2023-03-16T02:06:56;101561.59;;;2.82;75.18
4972;BME280;2501;51.214;6.768;2023-03-16T02:09:25;101553.84;;;2.82;75.00
4972;BME280;2501;51.214;6.768;2023-03-16T02:11:54;101558.44;;;2.87;75.22
4972;BME280;2501;51.214;6.768;2023-03-16T02:14:22;101555.53;;;2.81;75.36
4972;BME280;2501;51.214;6.768;2023-03-16T02:16:51;101542.50;;;2.79;74.99
4972;BME280;2501;51.214;6.768;2023-03-16T02:19:28;101541.69;;;2.80;75.24
4972;BME280;2501;51.214;6.768;2023-03-16T02:22:05;101535.50;;;2.77;75.28
4972;BME280;2501;51.214;6.768;2023-03-16T02:24:35;101532.13;;;2.79;75.03
4972;BME280;2501;51.214;6.768;2023-03-16T02:27:05;101532.22;;;2.81;75.23
4972;BME280;2501;51.214;6.768;2023-03-16T02:30:02;101530.38;;;2.78;75.50
4972;BME280;2501;51.214;6.768;2023-03-16T02:32:32;101527.72;;;2.77;75.47
4972;BME280;2501;51.214;6.768;2023-03-16T02:35:02;101528.59;;;2.77;75.16
4972;BME280;2501;51.214;6.768;2023-03-16T02:37:32;101520.81;;;2.77;75.28
4972;BME280;2501;51.214;6.768;2023-03-16T02:40:01;101507.13;;;2.80;75.12
4972;BME280;2501;51.214;6.768;2023-03-16T02:42:30;101515.88;;;2.82;74.90
4972;BME280;2501;51.214;6.768;2023-03-16T02:44:59;101511.56;;;2.83;74.82
4972;BME280;2501;51.214;6.768;2023-03-16T02:47:34;101502.41;;;2.89;74.79
4972;BME280;2501;51.214;6.768;2023-03-16T02:50:04;101503.72;;;2.81;74.66
4972;BME280;2501;51.214;6.768;2023-03-16T02:52:33;101509.13;;;2.86;74.33
4972;BME280;2501;51.214;6.768;2023-03-16T02:55:02;101494.31;;;2.83;74.40
4972;BME280;2501;51.214;6.768;2023-03-16T02:57:31;101494.41;;;2.85;74.14
4972;BME280;2501;51.214;6.768;2023-03-16T03:00:00;101491.38;;;2.93;74.23
4972;BME280;2501;51.214;6.768;2023-03-16T03:02:33;101493.09;;;2.93;73.81
4972;BME280;2501;51.214;6.768;2023-03-16T03:05:02;101485.38;;;2.94;73.82
4972;BME280;2501;51.214;6.768;2023-03-16T03:07:30;101487.75;;;2.90;73.73
4972;BME280;2501;51.214;6.768;2023-03-16T03:09:59;101473.25;;;2.93;73.73
4972;BME280;2501;51.214;6.768;2023-03-16T03:12:27;101464.72;;;2.96;73.75
4972;BME280;2501;51.214;6.768;2023-03-16T03:14:55;101468.19;;;2.96;73.62
4972;BME280;2501;51.214;6.768;2023-03-16T03:17:24;101469.06;;;2.97;73.43
4972;BME280;2501;51.214;6.768;2023-03-16T03:19:58;101469.97;;;2.97;73.65
4972;BME280;2501;51.214;6.768;2023-03-16T03:22:32;101474.56;;;3.03;73.84
4972;BME280;2501;51.214;6.768;2023-03-16T03:25:00;101480.31;;;2.97;73.73
4972;BME280;2501;51.214;6.768;2023-03-16T03:27:29;101476.94;;;2.98;73.68
4972;BME280;2501;51.214;6.768;2023-03-16T03:29:57;101469.00;;;2.95;73.67
4972;BME280;2501;51.214;6.768;2023-03-16T03:32:26;101474.25;;;2.97;73.75
4972;BME280;2501;51.214;6.768;2023-03-16T03:34:57;101469.88;;;2.96;73.99
4972;BME280;2501;51.214;6.768;2023-03-16T03:37:25;101475.06;;;2.96;73.61
4972;BME280;2501;51.214;6.768;2023-03-16T03:39:53;101467.38;;;2.97;73.82
4972;BME280;2501;51.214;6.768;2023-03-16T03:42:22;101469.84;;;2.94;74.02
4972;BME280;2501;51.214;6.768;2023-03-16T03:44:51;101473.59;;;3.01;73.83
4972;BME280;2501;51.214;6.768;2023-03-16T03:47:19;101472.63;;;2.99;74.04
4972;BME280;2501;51.214;6.768;2023-03-16T03:49:48;101471.56;;;3.13;74.63
4972;BME280;2501;51.214;6.768;2023-03-16T03:52:19;101470.84;;;2.98;73.92
4972;BME280;2501;51.214;6.768;2023-03-16T03:54:47;101477.72;;;3.15;73.91
4972;BME280;2501;51.214;6.768;2023-03-16T03:57:16;101471.16;;;3.04;73.27
4972;BME280;2501;51.214;6.768;2023-03-16T03:59:44;101476.34;;;3.04;73.40
4972;BME280;2501;51.214;6.768;2023-03-16T04:02:13;101475.22;;;2.99;73.40
4972;BME280;2501;51.214;6.768;2023-03-16T04:04:42;101475.59;;;3.06;73.15
4972;BME280;2501;51.214;6.768;2023-03-16T04:07:11;101455.69;;;3.05;73.26
4972;BME280;2501;51.214;6.768;2023-03-16T04:09:42;101459.97;;;3.05;73.09
4972;BME280;2501;51.214;6.768;2023-03-16T04:12:11;101456.56;;;3.06;73.12
4972;BME280;2501;51.214;6.768;2023-03-16T04:14:39;101448.22;;;3.11;73.29
4972;BME280;2501;51.214;6.768;2023-03-16T04:17:08;101459.91;;;3.03;73.06
4972;BME280;2501;51.214;6.768;2023-03-16T04:19:36;101447.09;;;3.06;72.91
4972;BME280;2501;51.214;6.768;2023-03-16T04:22:05;101446.13;;;3.04;72.58
4972;BME280;2501;51.214;6.768;2023-03-16T04:24:34;101448.50;;;3.00;72.42
4972;BME280;2501;51.214;6.768;2023-03-16T04:27:05;101444.50;;;3.06;72.73
4972;BME280;2501;51.214;6.768;2023-03-16T04:29:33;101444.19;;;3.00;72.58
4972;BME280;2501;51.214;6.768;2023-03-16T04:32:03;101433.03;;;3.01;72.57
4972;BME280;2501;51.214;6.768;2023-03-16T04:34:31;101432.28;;;3.04;72.59
4972;BME280;2501;51.214;6.768;2023-03-16T04:37:00;101441.91;;;3.06;72.85
4972;BME280;2501;51.214;6.768;2023-03-16T04:39:29;101437.41;;;3.02;72.55
4972;BME280;2501;51.214;6.768;2023-03-16T04:41:57;101420.72;;;2.97;72.69
4972;BME280;2501;51.214;6.768;2023-03-16T04:44:29;101426.22;;;3.03;72.84
4972;BME280;2501;51.214;6.768;2023-03-16T04:46:57;101422.81;;;3.04;72.80
4972;BME280;2501;51.214;6.768;2023-03-16T04:49:26;101430.50;;;3.03;72.74
4972;BME280;2501;51.214;6.768;2023-03-16T04:51:54;101432.50;;;3.08;72.82
4972;BME280;2501;51.214;6.768;2023-03-16T04:54:23;101422.13;;;3.08;72.39
4972;BME280;2501;51.214;6.768;2023-03-16T04:56:51;101427.25;;;3.07;72.74
4972;BME280;2501;51.214;6.768;2023-03-16T04:59:19;101423.84;;;3.08;72.52
4972;BME280;2501;51.214;6.768;2023-03-16T05:01:51;101424.72;;;3.08;72.97
4972;BME280;2501;51.214;6.768;2023-03-16T05:04:19;101416.88;;;3.07;72.68
4972;BME280;2501;51.214;6.768;2023-03-16T05:06:49;101419.69;;;3.11;72.78
4972;BME280;2501;51.214;6.768;2023-03-16T05:09:17;101417.09;;;3.11;73.09
4972;BME280;2501;51.214;6.768;2023-03-16T05:11:45;101415.66;;;3.18;73.19
4972;BME280;2501;51.214;6.768;2023-03-16T05:14:14;101423.22;;;3.13;72.97
4972;BME280;2501;51.214;6.768;2023-03-16T05:16:42;101419.63;;;3.10;73.44
4972;BME280;2501;51.214;6.768;2023-03-16T05:19:13;101420.69;;;3.15;73.47
4972;BME280;2501;51.214;6.768;2023-03-16T05:21:42;101421.44;;;3.12;73.50
4972;BME280;2501;51.214;6.768;2023-03-16T05:24:10;101424.19;;;3.15;73.54
4972;BME280;2501;51.214;6.768;2023-03-16T05:26:39;101423.16;;;3.12;73.37
4972;BME280;2501;51.214;6.768;2023-03-16T05:29:07;101421.28;;;3.27;73.62
4972;BME280;2501;51.214;6.768;2023-03-16T05:31:36;101418.91;;;3.14;73.66
4972;BME280;2501;51.214;6.768;2023-03-16T05:34:04;101412.09;;;3.16;73.71
4972;BME280;2501;51.214;6.768;2023-03-16T05:36:35;101417.44;;;3.19;73.70
4972;BME280;2501;51.214;6.768;2023-03-16T05:39:04;101410.41;;;3.17;73.59
4972;BME280;2501;51.214;6.768;2023-03-16T05:41:32;101422.34;;;3.13;73.79
4972;BME280;2501;51.214;6.768;2023-03-16T05:44:01;101422.47;;;3.16;73.98
4972;BME280;2501;51.214;6.768;2023-03-16T05:46:30;101421.59;;;3.15;73.72
4972;BME280;2501;51.214;6.768;2023-03-16T05:48:58;101417.28;;;3.16;73.87
4972;BME280;2501;51.214;6.768;2023-03-16T05:51:27;101422.47;;;3.16;73.96
4972;BME280;2501;51.214;6.768;2023-03-16T05:53:59;101422.78;;;3.41;74.17
4972;BME280;2501;51.214;6.768;2023-03-16T05:56:27;101421.72;;;3.19;74.01
4972;BME280;2501;51.214;6.768;2023-03-16T05:58:56;101425.84;;;3.33;73.87
4972;BME280;2501;51.214;6.768;2023-03-16T06:01:24;101420.25;;;3.24;73.72
4972;BME280;2501;51.214;6.768;2023-03-16T06:03:53;101422.50;;;3.35;73.85
4972;BME280;2501;51.214;6.768;2023-03-16T06:06:22;101421.41;;;3.30;73.94
4972;BME280;2501;51.214;6.768;2023-03-16T06:08:50;101424.06;;;3.32;73.88
4972;BME280;2501;51.214;6.768;2023-03-16T06:11:21;101413.09;;;3.37;73.56
4972;BME280;2501;51.214;6.768;2023-03-16T06:13:50;101418.13;;;3.34;73.82
4972;BME280;2501;51.214;6.768;2023-03-16T06:16:19;101417.19;;;3.32;73.69
4972;BME280;2501;51.214;6.768;2023-03-16T06:18:48;101415.63;;;3.36;73.68
4972;BME280;2501;51.214;6.768;2023-03-16T06:21:16;101423.53;;;3.39;73.69
4972;BME280;2501;51.214;6.768;2023-03-16T06:23:45;101425.53;;;3.44;73.44
4972;BME280;2501;51.214;6.768;2023-03-16T06:26:13;101429.06;;;3.46;73.37
4972;BME280;2501;51.214;6.768;2023-03-16T06:28:44;101418.22;;;3.55;72.94
4972;BME280;2501;51.214;6.768;2023-03-16T06:31:12;101424.97;;;3.52;73.01
4972;BME280;2501;51.214;6.768;2023-03-16T06:33:41;101421.84;;;3.59;72.53
4972;BME280;2501;51.214;6.768;2023-03-16T06:36:09;101428.38;;;3.70;72.32
4972;BME280;2501;51.214;6.768;2023-03-16T06:38:39;101424.09;;;3.70;72.09
4972;BME280;2501;51.214;6.768;2023-03-16T06:41:07;101435.28;;;3.69;72.07
4972;BME280;2501;51.214;6.768;2023-03-16T06:43:36;101432.47;;;3.84;71.84
4972;BME280;2501;51.214;6.768;2023-03-16T06:46:09;101426.59;;;3.88;71.71
4972;BME280;2501;51.214;6.768;2023-03-16T06:48:42;101433.53;;;4.08;71.39
4972;BME280;2501;51.214;6.768;2023-03-16T06:51:11;101434.59;;;3.93;71.08
4972;BME280;2501;51.214;6.768;2023-03-16T06:53:40;101432.94;;;3.95;70.92
4972;BME280;2501;51.214;6.768;2023-03-16T06:56:08;101436.19;;;4.10;71.15
4972;BME280;2501;51.214;6.768;2023-03-16T06:58:37;101437.50;;;4.00;70.76
4972;BME280;2501;51.214;6.768;2023-03-16T07:01:08;101427.56;;;3.90;70.88
4972;BME280;2501;51.214;6.768;2023-03-16T07:03:37;101431.09;;;3.92;70.83
4972;BME280;2501;51.214;6.768;2023-03-16T07:06:06;101429.34;;;3.91;70.87
4972;BME280;2501;51.214;6.768;2023-03-16T07:08:36;101425.69;;;4.07;71.00
4972;BME280;2501;51.214;6.768;2023-03-16T07:11:05;101431.31;;;3.97;70.83
4972;BME280;2501;51.214;6.768;2023-03-16T07:13:34;101429.84;;;4.03;70.89
4972;BME280;2501;51.214;6.768;2023-03-16T07:16:03;101437.44;;;3.99;70.97
4972;BME280;2501;51.214;6.768;2023-03-16T07:18:34;101434.34;;;4.07;71.42
4972;BME280;2501;51.214;6.768;2023-03-16T07:21:04;101431.63;;;4.04;70.98
4972;BME280;2501;51.214;6.768;2023-03-16T07:23:33;101434.44;;;4.09;71.16
4972;BME280;2501;51.214;6.768;2023-03-16T07:26:01;101432.91;;;4.14;70.94
4972;BME280;2501;51.214;6.768;2023-03-16T07:28:32;101439.91;;;4.15;70.89
4972;BME280;2501;51.214;6.768;2023-03-16T07:31:01;101442.38;;;4.33;70.86
4972;BME280;2501;51.214;6.768;2023-03-16T07:33:29;101443.69;;;4.23;70.57
4972;BME280;2501;51.214;6.768;2023-03-16T07:36:01;101443.56;;;4.41;70.35
4972;BME280;2501;51.214;6.768;2023-03-16T07:38:31;101445.84;;;4.33;70.27
4972;BME280;2501;51.214;6.768;2023-03-16T07:41:00;101442.69;;;4.40;70.10
4972;BME280;2501;51.214;6.768;2023-03-16T07:43:28;101446.22;;;4.42;69.92
4972;BME280;2501;51.214;6.768;2023-03-16T07:45:57;101443.25;;;4.54;69.67
4972;BME280;2501;51.214;6.768;2023-03-16T07:48:28;101434.69;;;4.57;69.37
4972;BME280;2501;51.214;6.768;2023-03-16T07:50:58;101440.50;;;4.51;69.55
4972;BME280;2501;51.214;6.768;2023-03-16T07:53:29;101438.63;;;4.47;69.72
4972;BME280;2501;51.214;6.768;2023-03-16T07:55:57;101437.63;;;4.64;69.78
4972;BME280;2501;51.214;6.768;2023-03-16T07:58:26;101441.38;;;4.72;69.55
4972;BME280;2501;51.214;6.768;2023-03-16T08:00:55;101430.66;;;4.63;69.49
4972;BME280;2501;51.214;6.768;2023-03-16T08:03:24;101436.16;;;4.50;69.28
4972;BME280;2501;51.214;6.768;2023-03-16T08:05:53;101429.06;;;4.89;69.19
4972;BME280;2501;51.214;6.768;2023-03-16T08:08:22;101431.59;;;4.87;68.74
4972;BME280;2501;51.214;6.768;2023-03-16T08:10:53;101427.34;;;4.89;68.33
4972;BME280;2501;51.214;6.768;2023-03-16T08:13:21;101427.22;;;4.86;68.61
4972;BME280;2501;51.214;6.768;2023-03-16T08:15:51;101419.81;;;4.96;68.43
4972;BME280;2501;51.214;6.768;2023-03-16T08:18:23;101417.09;;;5.15;68.45
4972;BME280;2501;51.214;6.768;2023-03-16T08:20:52;101418.81;;;4.92;67.98
4972;BME280;2501;51.214;6.768;2023-03-16T08:23:21;101420.22;;;5.06;68.45
4972;BME280;2501;51.214;6.768;2023-03-16T08:25:54;101420.59;;;5.15;67.91
4972;BME280;2501;51.214;6.768;2023-03-16T08:28:23;101420.28;;;5.30;67.91
4972;BME280;2501;51.214;6.768;2023-03-16T08:30:52;101420.75;;;5.20;67.65
4972;BME280;2501;51.214;6.768;2023-03-16T08:33:23;101409.25;;;5.13;67.83
4972;BME280;2501;51.214;6.768;2023-03-16T08:35:52;101400.97;;;5.47;67.38
4972;BME280;2501;51.214;6.768;2023-03-16T08:38:21;101401.97;;;5.51;66.87
4972;BME280;2501;51.214;6.768;2023-03-16T08:40:53;101417.66;;;5.52;66.71
4972;BME280;2501;51.214;6.768;2023-03-16T08:43:22;101416.72;;;5.50;67.10
4972;BME280;2501;51.214;6.768;2023-03-16T08:45:51;101425.13;;;5.67;67.58
4972;BME280;2501;51.214;6.768;2023-03-16T08:48:20;101425.53;;;5.55;67.18
4972;BME280;2501;51.214;6.768;2023-03-16T08:50:49;101426.00;;;5.68;66.99
4972;BME280;2501;51.214;6.768;2023-03-16T08:53:18;101422.91;;;5.54;66.80
4972;BME280;2501;51.214;6.768;2023-03-16T08:55:47;101427.88;;;5.72;66.59
4972;BME280;2501;51.214;6.768;2023-03-16T08:58:18;101437.97;;;5.63;66.55
4972;BME280;2501;51.214;6.768;2023-03-16T09:00:47;101433.81;;;5.68;66.43
4972;BME280;2501;51.214;6.768;2023-03-16T09:03:16;101429.66;;;5.73;66.14
4972;BME280;2501;51.214;6.768;2023-03-16T09:05:44;101415.44;;;5.87;66.05
4972;BME280;2501;51.214;6.768;2023-03-16T09:08:13;101411.63;;;6.01;65.49
4972;BME280;2501;51.214;6.768;2023-03-16T09:10:44;101423.00;;;5.81;66.00
4972;BME280;2501;51.214;6.768;2023-03-16T09:13:13;101423.63;;;5.98;65.84
4972;BME280;2501;51.214;6.768;2023-03-16T09:15:44;101414.28;;;6.03;65.76
4972;BME280;2501;51.214;6.768;2023-03-16T09:18:13;101406.41;;;6.26;65.30
4972;BME280;2501;51.214;6.768;2023-03-16T09:20:43;101395.31;;;6.59;64.57
4972;BME280;2501;51.214;6.768;2023-03-16T09:23:12;101402.91;;;6.26;64.56
4972;BME280;2501;51.214;6.768;2023-03-16T09:25:41;101395.03;;;6.24;64.34
4972;BME280;2501;51.214;6.768;2023-03-16T09:28:09;101402.34;;;6.35;64.04
4972;BME280;2501;51.214;6.768;2023-03-16T09:30:38;101397.50;;;6.72;63.87
4972;BME280;2501;51.214;6.768;2023-03-16T09:33:09;101398.03;;;6.89;63.51
4972;BME280;2501;51.214;6.768;2023-03-16T09:35:38;101397.81;;;6.83;63.43
4972;BME280;2501;51.214;6.768;2023-03-16T09:38:07;101385.88;;;6.89;63.35
4972;BME280;2501;51.214;6.768;2023-03-16T09:40:36;101386.34;;;7.05;62.69
4972;BME280;2501;51.214;6.768;2023-03-16T09:43:19;101378.69;;;7.41;61.81
4972;BME280;2501;51.214;6.768;2023-03-16T09:45:56;101377.22;;;7.50;61.77
4972;BME280;2501;51.214;6.768;2023-03-16T09:48:32;101377.22;;;6.90;62.17
4972;BME280;2501;51.214;6.768;2023-03-16T09:51:04;101367.28;;;6.79;62.14
4972;BME280;2501;51.214;6.768;2023-03-16T09:53:35;101350.56;;;7.01;61.87
4972;BME280;2501;51.214;6.768;2023-03-16T10:05:07;101342.06;;;7.38;60.81
4972;BME280;2501;51.214;6.768;2023-03-16T10:07:43;101339.63;;;7.14;60.85
4972;BME280;2501;51.214;6.768;2023-03-16T10:10:25;101351.97;;;7.19;61.49
4972;BME280;2501;51.214;6.768;2023-03-16T10:13:00;101344.25;;;7.22;60.65
4972;BME280;2501;51.214;6.768;2023-03-16T10:15:31;101339.88;;;7.21;60.65
4972;BME280;2501;51.214;6.768;2023-03-16T10:18:10;101335.59;;;7.55;60.46
4972;BME280;2501;51.214;6.768;2023-03-16T10:20:44;101335.16;;;7.71;59.64
4972;BME280;2501;51.214;6.768;2023-03-16T10:23:16;101335.63;;;8.22;58.96
4972;BME280;2501;51.214;6.768;2023-03-16T10:25:46;101342.09;;;8.03;58.47
4972;BME280;2501;51.214;6.768;2023-03-16T10:28:18;101337.19;;;8.16;58.23
4972;BME280;2501;51.214;6.768;2023-03-16T10:30:48;101343.56;;;7.92;58.49
4972;BME280;2501;51.214;6.768;2023-03-16T10:33:22;101344.25;;;7.85;58.57
4972;BME280;2501;51.214;6.768;2023-03-16T10:36:00;101352.16;;;7.88;58.19
4972;BME280;2501;51.214;6.768;2023-03-16T10:38:36;101334.69;;;7.86;58.82
4972;BME280;2501;51.214;6.768;2023-03-16T10:41:19;101328.88;;;7.96;58.33
4972;BME280;2501;51.214;6.768;2023-03-16T10:43:52;101325.38;;;7.97;58.00
4972;BME280;2501;51.214;6.768;2023-03-16T10:46:22;101320.00;;;8.60;57.39
4972;BME280;2501;51.214;6.768;2023-03-16T10:48:53;101309.69;;;8.67;56.69
4972;BME280;2501;51.214;6.768;2023-03-16T10:51:29;101307.00;;;9.03;56.05
4972;BME280;2501;51.214;6.768;2023-03-16T10:54:06;101311.78;;;8.84;56.09
4972;BME280;2501;51.214;6.768;2023-03-16T10:56:38;101300.59;;;8.50;56.45
4972;BME280;2501;51.214;6.768;2023-03-16T10:59:15;101298.81;;;8.49;56.60
4972;BME280;2501;51.214;6.768;2023-03-16T11:01:52;101288.88;;;8.72;56.08
4972;BME280;2501;51.214;6.768;2023-03-16T11:04:21;101290.97;;;8.49;56.33
4972;BME280;2501;51.214;6.768;2023-03-16T11:06:55;101294.91;;;8.69;55.83
4972;BME280;2501;51.214;6.768;2023-03-16T11:09:25;101281.28;;;8.83;55.02
4972;BME280;2501;51.214;6.768;2023-03-16T11:11:59;101295.88;;;8.73;55.26
4972;BME280;2501;51.214;6.768;2023-03-16T11:14:42;101293.75;;;8.96;54.64
4972;BME280;2501;51.214;6.768;2023-03-16T11:17:15;101284.78;;;8.85;54.68
4972;BME280;2501;51.214;6.768;2023-03-16T11:19:51;101269.19;;;9.31;54.15
4972;BME280;2501;51.214;6.768;2023-03-16T11:22:25;101277.00;;;9.30;53.38
4972;BME280;2501;51.214;6.768;2023-03-16T11:25:01;101268.78;;;9.12;53.78
4972;BME280;2501;51.214;6.768;2023-03-16T11:27:36;101266.69;;;8.94;54.17
4972;BME280;2501;51.214;6.768;2023-03-16T11:30:13;101257.50;;;9.14;53.90
4972;BME280;2501;51.214;6.768;2023-03-16T11:32:46;101252.91;;;9.48;53.84
4972;BME280;2501;51.214;6.768;2023-03-16T11:35:18;101241.28;;;9.32;53.15
4972;BME280;2501;51.214;6.768;2023-03-16T11:38:00;101242.94;;;9.28;53.10
4972;BME280;2501;51.214;6.768;2023-03-16T11:40:40;101238.50;;;9.24;53.00
4972;BME280;2501;51.214;6.768;2023-03-16T11:43:22;101241.75;;;9.11;53.18
4972;BME280;2501;51.214;6.768;2023-03-16T11:46:08;101223.44;;;9.59;52.62
4972;BME280;2501;51.214;6.768;2023-03-16T11:48:39;101216.66;;;9.72;52.05
4972;BME280;2501;51.214;6.768;2023-03-16T11:51:18;101213.09;;;9.67;52.07
4972;BME280;2501;51.214;6.768;2023-03-16T11:54:00;101203.72;;;9.81;52.20
4972;BME280;2501;51.214;6.768;2023-03-16T11:56:38;101205.66;;;9.93;51.96
4972;BME280;2501;51.214;6.768;2023-03-16T11:59:30;101208.44;;;10.02;51.84
4972;BME280;2501;51.214;6.768;2023-03-16T12:02:14;101211.47;;;10.29;50.82
4972;BME280;2501;51.214;6.768;2023-03-16T12:04:55;101196.34;;;10.11;50.91
4972;BME280;2501;51.214;6.768;2023-03-16T12:07:38;101186.59;;;10.01;51.29
4972;BME280;2501;51.214;6.768;2023-03-16T12:10:28;101184.97;;;10.11;51.20
4972;BME280;2501;51.214;6.768;2023-03-16T12:13:23;101184.97;;;10.11;51.07
4972;BME280;2501;51.214;6.768;2023-03-16T12:15:58;101177.03;;;10.06;50.92
4972;BME280;2501;51.214;6.768;2023-03-16T12:18:36;101170.94;;;10.09;50.58
4972;BME280;2501;51.214;6.768;2023-03-16T12:21:12;101158.53;;;9.96;51.04
4972;BME280;2501;51.214;6.768;2023-03-16T12:23:49;101159.28;;;9.86;51.15
4972;BME280;2501;51.214;6.768;2023-03-16T12:26:25;101155.09;;;9.98;51.21
4972;BME280;2501;51.214;6.768;2023-03-16T12:28:56;101151.84;;;10.16;51.18
4972;BME280;2501;51.214;6.768;2023-03-16T12:31:34;101150.22;;;10.24;51.16
4972;BME280;2501;51.214;6.768;2023-03-16T12:34:08;101139.81;;;10.29;50.93
4972;BME280;2501;51.214;6.768;2023-03-16T12:36:49;101145.41;;;9.94;50.55
4972;BME280;2501;51.214;6.768;2023-03-16T12:39:30;101133.13;;;10.52;50.76
4972;BME280;2501;51.214;6.768;2023-03-16T12:42:12;101139.84;;;10.30;50.01
4972;BME280;2501;51.214;6.768;2023-03-16T12:44:47;101124.31;;;10.47;49.71
4972;BME280;2501;51.214;6.768;2023-03-16T12:47:19;101120.09;;;10.60;49.06
4972;BME280;2501;51.214;6.768;2023-03-16T12:49:50;101105.13;;;10.51;49.53
4972;BME280;2501;51.214;6.768;2023-03-16T12:52:21;101108.41;;;10.33;49.42
4972;BME280;2501;51.214;6.768;2023-03-16T12:54:51;101097.13;;;10.40;49.67
4972;BME280;2501;51.214;6.768;2023-03-16T12:57:24;101087.66;;;10.52;49.64
4972;BME280;2501;51.214;6.768;2023-03-16T12:59:56;101084.66;;;10.23;50.00
4972;BME280;2501;51.214;6.768;2023-03-16T13:02:29;101086.78;;;10.51;49.64
4972;BME280;2501;51.214;6.768;2023-03-16T13:05:00;101086.81;;;10.53;49.34
4972;BME280;2501;51.214;6.768;2023-03-16T13:07:30;101087.00;;;10.74;49.18
4972;BME280;2501;51.214;6.768;2023-03-16T13:10:02;101070.28;;;10.61;49.08
4972;BME280;2501;51.214;6.768;2023-03-16T13:12:37;101064.22;;;10.67;49.16
4972;BME280;2501;51.214;6.768;2023-03-16T13:15:24;101066.03;;;10.74;48.95
4972;BME280;2501;51.214;6.768;2023-03-16T13:18:04;101068.75;;;10.81;48.92
4972;BME280;2501;51.214;6.768;2023-03-16T13:20:34;101066.19;;;10.88;48.79
4972;BME280;2501;51.214;6.768;2023-03-16T13:23:16;101065.34;;;10.93;48.73
4972;BME280;2501;51.214;6.768;2023-03-16T13:25:59;101057.34;;;10.79;48.55
4972;BME280;2501;51.214;6.768;2023-03-16T13:28:32;101068.97;;;11.06;48.25
4972;BME280;2501;51.214;6.768;2023-03-16T13:31:04;101062.88;;;11.11;48.08
4972;BME280;2501;51.214;6.768;2023-03-16T13:33:34;101065.63;;;11.24;48.18
4972;BME280;2501;51.214;6.768;2023-03-16T13:36:05;101061.84;;;10.93;48.59
4972;BME280;2501;51.214;6.768;2023-03-16T13:38:34;101055.00;;;11.07;48.31
4972;BME280;2501;51.214;6.768;2023-03-16T13:41:07;101055.41;;;11.63;47.72
4972;BME280;2501;51.214;6.768;2023-03-16T13:43:41;101040.88;;;12.34;45.93
4972;BME280;2501;51.214;6.768;2023-03-16T13:46:14;101025.84;;;12.01;46.12
4972;BME280;2501;51.214;6.768;2023-03-16T13:48:43;101016.34;;;12.47;45.33
4972;BME280;2501;51.214;6.768;2023-03-16T13:51:16;101014.63;;;12.46;44.68